Weather reports worldwide

Advertisment
Molina De Aragon, Spain (8232): temperature & dewpoint: 18.06.2018 16:00:00 - 24.06.2018 16:00:00 (CEST)Molina De Aragon, Spain (8232): wind speed: 18.06.2018 16:00:00 - 24.06.2018 16:00:00 (CEST)Molina De Aragon, Spain (8232): wind direction: 18.06.2018 16:00:00 - 24.06.2018 16:00:00 (CEST)Molina De Aragon, Spain (8232): visibility: 18.06.2018 16:00:00 - 24.06.2018 16:00:00 (CEST)Molina De Aragon, Spain (8232): precipitation: 18.06.2018 16:00:00 - 24.06.2018 16:00:00 (CEST)
Date & Time tt [°C] td [°C] ff [km/h] ff [kn] dd vv [km] rr [mm]
24.06.2018 16:00:00 31,6 10,9 11 6 W 20 0,0
24.06.2018 15:00:00 31,3 10,1 11 6 WNW 20 0,0
24.06.2018 14:00:00 30,4 10,4 11 6 WNW 20 -
24.06.2018 13:00:00 29,2 10,8 8 4 WNW 20 0,0
24.06.2018 12:00:00 27,7 14,0 5 3 NNW 20 0,0
24.06.2018 11:00:00 25,2 14,0 8 4 WSW 20 -
24.06.2018 10:00:00 20,6 14,5 4 2 S 20 0,0
24.06.2018 09:00:00 16,4 12,2 2 1 ENE 20 0,0
24.06.2018 08:00:00 12,6 10,8 2 1 NE 20 -
24.06.2018 07:00:00 12,2 9,9 0 0 N 19 0,0
24.06.2018 06:00:00 12,8 10,5 2 1 E 20 0,0
24.06.2018 05:00:00 13,5 10,7 2 1 ENE 20 -
24.06.2018 04:00:00 14,4 11,4 2 1 ESE 20 0,0
24.06.2018 03:00:00 15,4 11,2 4 2 ESE 20 0,0
24.06.2018 02:00:00 16,7 11,4 2 1 ESE 20 -
24.06.2018 01:00:00 18,7 10,3 4 2 ENE 20 0,0
24.06.2018 00:00:00 20,0 10,7 2 1 NNE 20 0,0
23.06.2018 23:00:00 21,5 11,5 5 3 NNE 20 -
23.06.2018 22:00:00 24,0 15,5 4 2 NNE 20 0,0
23.06.2018 21:00:00 26,0 15,7 5 3 ENE 19 0,0
23.06.2018 20:00:00 28,2 14,1 13 7 E 20 -
23.06.2018 19:00:00 30,2 11,7 4 2 NNW 20 0,0
23.06.2018 18:00:00 30,1 12,1 5 3 NNW 20 0,0
23.06.2018 17:00:00 30,4 11,4 9 5 WNW 20 -
23.06.2018 16:00:00 30,2 10,7 9 5 WSW 20 0,0
23.06.2018 15:00:00 30,1 11,6 9 5 WSW 20 0,0
23.06.2018 14:00:00 29,3 10,4 11 6 SW 20 -
23.06.2018 13:00:00 28,8 10,9 9 5 W 20 0,0
23.06.2018 12:00:00 27,6 13,5 8 4 WNW 20 0,0
23.06.2018 11:00:00 24,8 15,1 2 1 SW 20 -
23.06.2018 10:00:00 20,6 16,0 4 2 SW 20 0,0
23.06.2018 09:00:00 16,6 13,5 2 1 S 20 0,0
23.06.2018 08:00:00 13,7 12,3 2 1 ESE 20 -
23.06.2018 07:00:00 13,0 11,1 2 1 E 16 0,0
23.06.2018 06:00:00 13,6 11,5 0 0 N 18 0,0
23.06.2018 05:00:00 14,4 11,9 2 1 ENE 20 -
23.06.2018 04:00:00 15,5 12,6 0 0 N 20 0,0
23.06.2018 03:00:00 16,5 13,0 4 2 E 20 0,0
23.06.2018 02:00:00 17,9 13,8 4 2 ESE 20 -
23.06.2018 01:00:00 19,5 13,9 2 1 NE 20 0,0
23.06.2018 00:00:00 20,7 13,9 5 3 E 20 0,0
22.06.2018 23:00:00 21,5 14,2 2 1 NNE 20 -
22.06.2018 22:00:00 23,3 14,8 2 1 ENE 20 0,0
22.06.2018 21:00:00 24,7 15,1 5 3 ENE 18 0,0
22.06.2018 20:00:00 27,2 12,8 4 2 ENE 20 -
22.06.2018 19:00:00 27,4 12,2 8 4 E 18 0,0
22.06.2018 18:00:00 29,6 12,1 5 3 N 20 0,0
22.06.2018 17:00:00 30,8 13,1 9 5 NNE 20 -
22.06.2018 16:00:00 31,1 12,9 4 2 NNE 20 0,0
22.06.2018 15:00:00 29,6 11,2 5 3 SE 20 0,0
22.06.2018 14:00:00 28,7 8,4 4 2 ENE 20 -
22.06.2018 13:00:00 27,8 10,5 8 4 SE 20 0,0
22.06.2018 12:00:00 26,2 13,7 4 2 S 20 0,0
22.06.2018 11:00:00 23,4 12,1 4 2 S 20 -
22.06.2018 10:00:00 19,4 10,7 2 1 WSW 20 0,0
22.06.2018 09:00:00 15,6 10,4 2 1 N 20 0,0
22.06.2018 08:00:00 11,5 9,2 2 1 ENE 20 -
22.06.2018 07:00:00 11,0 8,6 2 1 E 20 0,0
22.06.2018 06:00:00 11,7 8,7 2 1 E 20 0,0
22.06.2018 05:00:00 12,6 9,4 2 1 ESE 20 -
22.06.2018 04:00:00 13,4 9,8 2 1 ENE 20 0,0
22.06.2018 03:00:00 14,9 10,3 2 1 ENE 20 0,0
22.06.2018 02:00:00 16,3 10,8 2 1 E 20 -
22.06.2018 01:00:00 17,5 10,8 2 1 NNE 20 0,0
22.06.2018 00:00:00 19,0 11,3 2 1 NE 20 0,0
21.06.2018 23:00:00 21,0 11,3 4 2 N 20 -
21.06.2018 22:00:00 23,3 11,7 2 1 NE 7 0,0
21.06.2018 21:00:00 26,0 11,0 4 2 NNE 17 0,0
21.06.2018 20:00:00 28,0 9,3 8 4 ENE 16 -
21.06.2018 19:00:00 29,1 10,2 2 1 NE 20 0,0
21.06.2018 18:00:00 30,5 7,6 8 4 E 20 0,0
21.06.2018 17:00:00 29,7 8,1 8 4 E 20 -
21.06.2018 16:00:00 29,6 10,7 8 4 E 20 0,0
21.06.2018 15:00:00 29,0 8,1 11 6 E 20 0,0
21.06.2018 14:00:00 28,4 6,5 8 4 ESE 20 -
21.06.2018 13:00:00 27,4 7,3 9 5 E 20 0,0
21.06.2018 12:00:00 26,1 7,6 11 6 E 20 0,0
21.06.2018 11:00:00 23,6 13,7 4 2 WNW 20 -
21.06.2018 10:00:00 20,0 12,2 4 2 ESE 20 0,0
21.06.2018 09:00:00 15,8 11,8 2 1 E 20 0,0
21.06.2018 08:00:00 11,8 10,4 2 1 E 20 -
21.06.2018 07:00:00 11,5 9,6 2 1 E 18 0,0
21.06.2018 06:00:00 12,5 10,2 2 1 E 20 0,0
21.06.2018 05:00:00 13,6 10,9 2 1 E 20 -
21.06.2018 04:00:00 14,6 11,6 4 2 E 20 0,0
21.06.2018 03:00:00 15,6 12,0 4 2 SSW 20 0,0
21.06.2018 02:00:00 16,6 12,1 2 1 NE 20 -
21.06.2018 01:00:00 18,0 12,4 2 1 E 20 0,0
21.06.2018 00:00:00 19,9 12,6 2 1 NW 20 0,0
20.06.2018 23:00:00 22,0 10,5 5 3 E 20 -
20.06.2018 22:00:00 23,2 10,3 2 1 NE 20 0,0
20.06.2018 21:00:00 25,0 11,2 2 1 NNE 6 0,0
20.06.2018 20:00:00 28,1 11,6 4 2 NE 15 -
20.06.2018 19:00:00 29,7 11,7 5 3 ENE 19 0,0
20.06.2018 18:00:00 29,9 10,4 8 4 ENE 19 0,0
20.06.2018 17:00:00 30,1 12,1 5 3 N 20 -
20.06.2018 16:00:00 29,5 13,3 5 3 N 20 0,0
20.06.2018 15:00:00 28,9 10,5 8 4 NNE 20 0,0
20.06.2018 14:00:00 27,4 14,8 5 3 NE 20 -
20.06.2018 13:00:00 26,3 13,1 5 3 E 20 0,0
20.06.2018 12:00:00 24,6 13,8 5 3 SSW 20 0,0
20.06.2018 11:00:00 22,7 13,7 4 2 SW 20 -
20.06.2018 10:00:00 20,0 13,9 2 1 W 20 0,0
20.06.2018 09:00:00 16,2 12,4 2 1 W 20 0,0
20.06.2018 08:00:00 12,9 11,1 2 1 E 20 -
20.06.2018 07:00:00 12,0 10,2 2 1 ENE 20 0,0
20.06.2018 06:00:00 12,5 10,6 2 1 E 20 0,0
20.06.2018 05:00:00 13,2 11,1 2 1 E 20 -
20.06.2018 04:00:00 13,9 11,4 2 1 S 20 0,0
20.06.2018 03:00:00 15,0 11,8 2 1 SSW 20 0,0
20.06.2018 02:00:00 16,2 12,2 4 2 N 20 -
20.06.2018 01:00:00 17,7 12,6 2 1 E 20 0,0
20.06.2018 00:00:00 19,6 12,6 2 1 NE 20 0,0
19.06.2018 23:00:00 20,9 13,3 2 1 ENE 20 -
19.06.2018 22:00:00 22,6 13,4 2 1 NNE 20 0,0
19.06.2018 21:00:00 24,9 13,4 5 3 NNE 17 0,0
19.06.2018 20:00:00 27,9 14,2 5 3 NNE 16 -
19.06.2018 19:00:00 29,4 10,5 4 2 ESE 20 0,0
19.06.2018 18:00:00 29,3 10,4 5 3 WSW 20 0,0
19.06.2018 17:00:00 29,2 11,3 5 3 W 20 -
19.06.2018 16:00:00 28,4 12,7 8 4 W 20 0,0
19.06.2018 15:00:00 28,1 10,8 5 3 N 20 0,0
19.06.2018 14:00:00 26,8 11,3 5 3 SE 20 -
19.06.2018 13:00:00 25,6 11,7 4 2 SE 20 0,0
19.06.2018 12:00:00 24,0 12,3 4 2 NE 20 0,0
19.06.2018 11:00:00 21,1 13,5 4 2 SW 20 -
19.06.2018 10:00:00 17,3 11,8 4 2 SSW 20 0,0
19.06.2018 09:00:00 13,0 10,0 2 1 SW 20 0,0
19.06.2018 08:00:00 9,4 8,3 2 1 SSE 20 -
19.06.2018 07:00:00 8,6 7,2 2 1 S 20 0,0
19.06.2018 06:00:00 9,1 7,5 2 1 NNE 20 0,0
19.06.2018 05:00:00 9,9 8,2 2 1 NNE 20 -
19.06.2018 04:00:00 10,8 9,1 2 1 SSW 20 0,0
19.06.2018 03:00:00 11,3 9,4 2 1 SE 20 0,0
19.06.2018 02:00:00 11,8 9,7 2 1 ENE 20 -
19.06.2018 01:00:00 12,6 9,8 4 2 E 20 0,0
19.06.2018 00:00:00 13,8 9,8 4 2 E 20 0,0
18.06.2018 23:00:00 15,6 10,6 4 2 ENE 20 -
18.06.2018 22:00:00 18,1 10,0 5 3 E 20 0,0
18.06.2018 21:00:00 20,9 10,4 5 3 NNE 17 0,0
18.06.2018 20:00:00 22,8 9,6 5 3 N 20 -
18.06.2018 19:00:00 23,2 9,9 5 3 NNE 15 0,0
18.06.2018 18:00:00 25,0 10,8 9 5 N 20 0,0
18.06.2018 17:00:00 27,0 9,4 9 5 N 20 -
18.06.2018 16:00:00 26,8 8,7 5 3 NNE 20 0,0

tt = temperature
td = dewpoint
ff = wind speed
dd = wind direction
vv = visibility
rr = precipitation

Next stations